POGODA: Poland

Lotnisko: Warszawa-Okecie

METAR KOD: EPWA


METAR: EPWA 260700Z 15005KT 120V190 9999 BKN026 M01/M02 Q1029 NOSIG


BLOK
Pogoda METAR
260700Z
Dzien: 26, Godzina: 07:00 UTC.
15005KT
Wiatr z kierunku 150, o predkosci 9 km/h
120V190
Wiatr zmienny pomiedzy 120 i 190
9999
Widzialnosc pozioma ponad 10 km.
BKN026
5/8 - 7/8 pokrycia nieba, chmurami o podstawie: 780 metrow
M01/M02
Temperatura: powietrze -1°C, punkt rosy -2°C
Q1029
Cisnienie: 1029 hPa
NOSIG
Pogoda bedzie bez zmian

Pogoda na innym lotnisku

Pogoda Gdansk-Rebiechowo WEATHER Poland  
Pogoda Katowice WEATHER Poland  
Pogoda Krakow WEATHER Poland  
Pogoda Poznan WEATHER Poland  
Pogoda Rzeszow-Jasionka WEATHER Poland  
Pogoda Szczecin WEATHER Poland  
Pogoda Warszawa-Okecie WEATHER Poland  
Pogoda Wroclaw Ii WEATHER Poland  

Pogoda w inny kraju

Strona startowa

(C) by GREGOR 2007
Ogłoszenia Towarzyskie